sensor_id;sensor_type;location;lat;lon;timestamp;pressure;altitude;pressure_sealevel;temperature;humidity
5679;BME280;2862;52.560;13.566;2023-06-22T00:04:56;101042.16;;;22.49;70.85
5679;BME280;2862;52.560;13.566;2023-06-22T00:14:59;101039.31;;;22.36;72.51
5679;BME280;2862;52.560;13.566;2023-06-22T00:25:05;101042.72;;;22.16;73.18
5679;BME280;2862;52.560;13.566;2023-06-22T00:35:08;101063.22;;;22.12;73.81
5679;BME280;2862;52.560;13.566;2023-06-22T00:45:13;101067.53;;;22.07;74.28
5679;BME280;2862;52.560;13.566;2023-06-22T00:55:18;101066.78;;;21.91;74.89
5679;BME280;2862;52.560;13.566;2023-06-22T01:05:23;101075.81;;;21.77;75.77
5679;BME280;2862;52.560;13.566;2023-06-22T01:15:31;101082.28;;;21.40;78.86
5679;BME280;2862;52.560;13.566;2023-06-22T01:25:45;101083.13;;;21.40;79.05
5679;BME280;2862;52.560;13.566;2023-06-22T01:35:51;101089.97;;;21.07;80.61
5679;BME280;2862;52.560;13.566;2023-06-22T01:45:54;101099.69;;;20.72;82.58
5679;BME280;2862;52.560;13.566;2023-06-22T01:55:59;101105.56;;;20.60;83.26
5679;BME280;2862;52.560;13.566;2023-06-22T02:06:05;101103.91;;;20.74;83.85
5679;BME280;2862;52.560;13.566;2023-06-22T02:16:11;101106.94;;;20.33;86.33
5679;BME280;2862;52.560;13.566;2023-06-22T02:26:16;101109.34;;;20.05;88.79
5679;BME280;2862;52.560;13.566;2023-06-22T02:36:21;101123.75;;;20.37;86.80
5679;BME280;2862;52.560;13.566;2023-06-22T02:46:23;101132.84;;;20.44;87.54
5679;BME280;2862;52.560;13.566;2023-06-22T02:56:29;101129.06;;;20.53;87.37
5679;BME280;2862;52.560;13.566;2023-06-22T03:06:34;101131.19;;;20.35;89.42
5679;BME280;2862;52.560;13.566;2023-06-22T03:16:40;101123.91;;;20.35;89.42
5679;BME280;2862;52.560;13.566;2023-06-22T03:26:43;101132.44;;;20.32;89.61
5679;BME280;2862;52.560;13.566;2023-06-22T03:36:49;101115.69;;;21.34;82.81
5679;BME280;2862;52.560;13.566;2023-06-22T03:46:52;101122.19;;;22.91;74.32
5679;BME280;2862;52.560;13.566;2023-06-22T03:56:58;101115.69;;;24.82;64.58
5679;BME280;2862;52.560;13.566;2023-06-22T04:07:01;101108.47;;;25.27;60.66
5679;BME280;2862;52.560;13.566;2023-06-22T04:17:05;101115.75;;;26.05;57.67
5679;BME280;2862;52.560;13.566;2023-06-22T04:27:08;101116.84;;;27.10;52.52
5679;BME280;2862;52.560;13.566;2023-06-22T04:37:12;101130.53;;;28.32;48.26
5679;BME280;2862;52.560;13.566;2023-06-22T04:47:17;101137.47;;;30.15;43.33
5679;BME280;2862;52.560;13.566;2023-06-22T04:57:21;101135.88;;;31.59;38.77
5679;BME280;2862;52.560;13.566;2023-06-22T05:07:34;101144.31;;;32.77;36.08
5679;BME280;2862;52.560;13.566;2023-06-22T05:17:39;101139.47;;;32.04;36.98
5679;BME280;2862;52.560;13.566;2023-06-22T05:27:44;101144.09;;;32.84;35.74
5679;BME280;2862;52.560;13.566;2023-06-22T05:37:49;101162.59;;;27.16;49.83
5679;BME280;2862;52.560;13.566;2023-06-22T05:47:53;101156.16;;;29.09;44.50
5679;BME280;2862;52.560;13.566;2023-06-22T05:57:57;101165.50;;;26.71;51.00
5679;BME280;2862;52.560;13.566;2023-06-22T06:08:01;101177.53;;;28.12;47.88
5679;BME280;2862;52.560;13.566;2023-06-22T06:18:06;101172.31;;;27.56;48.38
5679;BME280;2862;52.560;13.566;2023-06-22T06:28:09;101162.97;;;33.24;34.99
5679;BME280;2862;52.560;13.566;2023-06-22T06:38:14;101159.56;;;34.89;31.00
5679;BME280;2862;52.560;13.566;2023-06-22T06:48:17;101174.56;;;34.98;29.28
5679;BME280;2862;52.560;13.566;2023-06-22T06:58:21;101179.19;;;33.48;31.37
5679;BME280;2862;52.560;13.566;2023-06-22T07:08:24;101148.75;;;34.82;28.64
5679;BME280;2862;52.560;13.566;2023-06-22T07:18:29;101150.91;;;36.01;27.31
5679;BME280;2862;52.560;13.566;2023-06-22T07:28:32;101138.97;;;37.03;26.44
5679;BME280;2862;52.560;13.566;2023-06-22T07:38:40;101130.56;;;36.05;27.08
5679;BME280;2862;52.560;13.566;2023-06-22T07:48:43;101127.47;;;31.10;30.56
5679;BME280;2862;52.560;13.566;2023-06-22T07:58:47;101120.28;;;29.45;35.01
5679;BME280;2862;52.560;13.566;2023-06-22T08:08:50;101130.16;;;28.94;37.32
5679;BME280;2862;52.560;13.566;2023-06-22T08:18:56;101126.34;;;27.99;36.13
5679;BME280;2862;52.560;13.566;2023-06-22T08:28:58;101128.59;;;27.54;38.88
5679;BME280;2862;52.560;13.566;2023-06-22T08:39:03;101127.28;;;27.20;40.45
5679;BME280;2862;52.560;13.566;2023-06-22T08:49:06;101117.13;;;27.75;39.21
5679;BME280;2862;52.560;13.566;2023-06-22T08:59:11;101118.28;;;27.49;40.36
5679;BME280;2862;52.560;13.566;2023-06-22T09:09:15;101117.31;;;27.92;40.00
5679;BME280;2862;52.560;13.566;2023-06-22T09:19:20;101113.13;;;28.20;38.04
5679;BME280;2862;52.560;13.566;2023-06-22T09:29:23;101104.66;;;28.98;37.21
5679;BME280;2862;52.560;13.566;2023-06-22T09:39:27;101103.13;;;29.02;37.52
5679;BME280;2862;52.560;13.566;2023-06-22T09:49:30;101102.59;;;28.58;36.73
5679;BME280;2862;52.560;13.566;2023-06-22T09:59:48;101096.03;;;29.06;33.50
5679;BME280;2862;52.560;13.566;2023-06-22T10:09:51;101108.09;;;28.58;34.58
5679;BME280;2862;52.560;13.566;2023-06-22T10:19:55;101097.13;;;28.28;35.64
5679;BME280;2862;52.560;13.566;2023-06-22T10:29:59;101104.38;;;28.41;36.70
5679;BME280;2862;52.560;13.566;2023-06-22T10:40:05;101079.75;;;28.70;35.34
5679;BME280;2862;52.560;13.566;2023-06-22T10:50:10;101074.13;;;28.53;36.10
5679;BME280;2862;52.560;13.566;2023-06-22T11:00:14;101059.38;;;28.36;37.10
5679;BME280;2862;52.560;13.566;2023-06-22T11:10:18;101044.78;;;28.82;36.58
5679;BME280;2862;52.560;13.566;2023-06-22T11:20:22;101040.28;;;27.99;37.21
5679;BME280;2862;52.560;13.566;2023-06-22T11:30:25;101033.84;;;28.05;37.13
5679;BME280;2862;52.560;13.566;2023-06-22T11:40:29;101027.75;;;28.15;37.86
5679;BME280;2862;52.560;13.566;2023-06-22T11:50:32;101031.22;;;28.10;37.38
5679;BME280;2862;52.560;13.566;2023-06-22T12:00:39;101026.31;;;28.12;37.06
5679;BME280;2862;52.560;13.566;2023-06-22T12:10:50;101029.75;;;27.96;38.11
5679;BME280;2862;52.560;13.566;2023-06-22T12:20:56;101015.38;;;28.71;37.36
5679;BME280;2862;52.560;13.566;2023-06-22T12:31:00;101000.50;;;28.95;36.04
5679;BME280;2862;52.560;13.566;2023-06-22T12:41:04;100970.38;;;28.65;37.04
5679;BME280;2862;52.560;13.566;2023-06-22T12:51:07;100974.66;;;28.02;36.95
5679;BME280;2862;52.560;13.566;2023-06-22T13:01:13;100957.34;;;28.25;37.64
5679;BME280;2862;52.560;13.566;2023-06-22T13:11:17;100940.03;;;28.37;37.93
5679;BME280;2862;52.560;13.566;2023-06-22T13:21:21;100953.72;;;27.90;38.90
5679;BME280;2862;52.560;13.566;2023-06-22T13:31:24;100928.88;;;28.43;38.29
5679;BME280;2862;52.560;13.566;2023-06-22T13:41:29;100918.03;;;28.37;38.54
5679;BME280;2862;52.560;13.566;2023-06-22T13:51:32;100905.81;;;28.44;38.27
5679;BME280;2862;52.560;13.566;2023-06-22T14:01:36;100897.78;;;28.54;38.05
5679;BME280;2862;52.560;13.566;2023-06-22T14:11:40;100877.19;;;28.69;38.32
5679;BME280;2862;52.560;13.566;2023-06-22T14:21:45;100847.09;;;28.39;38.26
5679;BME280;2862;52.560;13.566;2023-06-22T14:31:48;100834.31;;;28.09;38.65
5679;BME280;2862;52.560;13.566;2023-06-22T14:41:53;100838.75;;;28.34;38.58
5679;BME280;2862;52.560;13.566;2023-06-22T14:51:56;100836.59;;;28.36;38.82
5679;BME280;2862;52.560;13.566;2023-06-22T15:02:00;100806.38;;;28.00;39.14
5679;BME280;2862;52.560;13.566;2023-06-22T15:12:04;100798.56;;;28.09;38.91
5679;BME280;2862;52.560;13.566;2023-06-22T15:22:11;100765.38;;;27.99;40.23
5679;BME280;2862;52.560;13.566;2023-06-22T15:32:14;100764.53;;;28.10;40.57
5679;BME280;2862;52.560;13.566;2023-06-22T15:42:19;100755.16;;;28.23;40.79
5679;BME280;2862;52.560;13.566;2023-06-22T15:52:22;100740.28;;;27.95;40.80
5679;BME280;2862;52.560;13.566;2023-06-22T16:02:27;100720.13;;;27.78;40.97
5679;BME280;2862;52.560;13.566;2023-06-22T16:12:30;100751.91;;;27.74;42.00
5679;BME280;2862;52.560;13.566;2023-06-22T16:22:34;100716.78;;;27.88;42.04
5679;BME280;2862;52.560;13.566;2023-06-22T16:32:37;100691.44;;;27.74;42.10
5679;BME280;2862;52.560;13.566;2023-06-22T16:42:44;100651.31;;;27.73;42.54
5679;BME280;2862;52.560;13.566;2023-06-22T16:52:48;100656.00;;;27.49;42.96
5679;BME280;2862;52.560;13.566;2023-06-22T17:02:53;100622.94;;;27.32;43.16
5679;BME280;2862;52.560;13.566;2023-06-22T17:12:58;100616.38;;;27.21;43.82
5679;BME280;2862;52.560;13.566;2023-06-22T17:23:03;100634.88;;;27.03;44.49
5679;BME280;2862;52.560;13.566;2023-06-22T17:33:08;100628.66;;;26.95;45.08
5679;BME280;2862;52.560;13.566;2023-06-22T17:43:13;100600.72;;;26.75;45.38
5679;BME280;2862;52.560;13.566;2023-06-22T17:53:16;100598.28;;;26.55;46.26
5679;BME280;2862;52.560;13.566;2023-06-22T18:03:24;100558.69;;;26.39;46.72
5679;BME280;2862;52.560;13.566;2023-06-22T18:13:28;100564.25;;;26.21;46.63
5679;BME280;2862;52.560;13.566;2023-06-22T18:23:33;100538.59;;;26.04;47.00
5679;BME280;2862;52.560;13.566;2023-06-22T18:33:38;100539.03;;;26.01;47.05
5679;BME280;2862;52.560;13.566;2023-06-22T18:43:45;100549.44;;;25.80;47.09
5679;BME280;2862;52.560;13.566;2023-06-22T18:54:02;100513.50;;;25.58;47.55
5679;BME280;2862;52.560;13.566;2023-06-22T19:04:14;100513.50;;;25.40;48.24
5679;BME280;2862;52.560;13.566;2023-06-22T19:14:18;100473.94;;;25.24;48.79
5679;BME280;2862;52.560;13.566;2023-06-22T19:24:29;100518.69;;;25.11;48.82
5679;BME280;2862;52.560;13.566;2023-06-22T19:34:34;100507.31;;;25.14;48.66
5679;BME280;2862;52.560;13.566;2023-06-22T19:44:39;100516.34;;;24.97;48.69
5679;BME280;2862;52.560;13.566;2023-06-22T19:54:42;100488.66;;;24.86;49.20
5679;BME280;2862;52.560;13.566;2023-06-22T20:04:47;100478.88;;;24.79;49.35
5679;BME280;2862;52.560;13.566;2023-06-22T20:14:51;100419.53;;;24.61;49.32
5679;BME280;2862;52.560;13.566;2023-06-22T20:24:56;100420.44;;;24.55;49.15
5679;BME280;2862;52.560;13.566;2023-06-22T20:35:02;100474.97;;;24.68;48.13
5679;BME280;2862;52.560;13.566;2023-06-22T20:45:08;100521.25;;;24.88;49.17
5679;BME280;2862;52.560;13.566;2023-06-22T20:55:11;100720.44;;;24.34;59.61
5679;BME280;2862;52.560;13.566;2023-06-22T21:05:16;100579.50;;;22.24;68.48
5679;BME280;2862;52.560;13.566;2023-06-22T21:15:19;100571.41;;;20.45;91.23
5679;BME280;2862;52.560;13.566;2023-06-22T21:25:23;100586.72;;;21.02;88.09
5679;BME280;2862;52.560;13.566;2023-06-22T21:35:27;100613.63;;;21.25;89.56
5679;BME280;2862;52.560;13.566;2023-06-22T21:45:31;100656.69;;;21.49;95.18
5679;BME280;2862;52.560;13.566;2023-06-22T21:55:34;100835.09;;;21.58;100.00
5679;BME280;2862;52.560;13.566;2023-06-22T22:05:39;100781.28;;;21.60;97.91
5679;BME280;2862;52.560;13.566;2023-06-22T22:15:42;100729.31;;;21.27;97.39
5679;BME280;2862;52.560;13.566;2023-06-22T22:25:47;100716.03;;;21.11;99.36
5679;BME280;2862;52.560;13.566;2023-06-22T22:35:50;100625.13;;;19.85;100.00
5679;BME280;2862;52.560;13.566;2023-06-22T22:45:54;100592.13;;;19.07;100.00
5679;BME280;2862;52.560;13.566;2023-06-22T22:55:57;100512.91;;;18.76;100.00
5679;BME280;2862;52.560;13.566;2023-06-22T23:06:01;100521.03;;;18.38;100.00
5679;BME280;2862;52.560;13.566;2023-06-22T23:16:05;100439.63;;;18.25;100.00
5679;BME280;2862;52.560;13.566;2023-06-22T23:26:09;100436.88;;;18.10;100.00
5679;BME280;2862;52.560;13.566;2023-06-22T23:36:12;100396.97;;;18.12;100.00
5679;BME280;2862;52.560;13.566;2023-06-22T23:46:17;100386.22;;;18.19;100.00
5679;BME280;2862;52.560;13.566;2023-06-22T23:56:21;100446.91;;;18.39;100.00
